sensor_id;sensor_type;location;lat;lon;timestamp;temperature;humidity
12152;DHT22;6139;51.274;7.128;2023-02-13T00:00:24;7.80;99.90
12152;DHT22;6139;51.274;7.128;2023-02-13T00:01:26;7.70;99.90
12152;DHT22;6139;51.274;7.128;2023-02-13T00:02:27;7.70;99.90
12152;DHT22;6139;51.274;7.128;2023-02-13T00:03:29;7.70;99.90
12152;DHT22;6139;51.274;7.128;2023-02-13T00:04:30;7.70;99.90
12152;DHT22;6139;51.274;7.128;2023-02-13T00:05:32;7.70;99.90
12152;DHT22;6139;51.274;7.128;2023-02-13T00:06:33;7.70;99.90
12152;DHT22;6139;51.274;7.128;2023-02-13T00:07:35;7.70;99.90
12152;DHT22;6139;51.274;7.128;2023-02-13T00:08:36;7.70;99.90
12152;DHT22;6139;51.274;7.128;2023-02-13T00:09:38;7.70;99.90
12152;DHT22;6139;51.274;7.128;2023-02-13T00:10:39;7.70;99.90
12152;DHT22;6139;51.274;7.128;2023-02-13T00:11:43;7.70;99.90
12152;DHT22;6139;51.274;7.128;2023-02-13T00:12:44;7.70;99.90
12152;DHT22;6139;51.274;7.128;2023-02-13T00:13:46;7.70;99.90
12152;DHT22;6139;51.274;7.128;2023-02-13T00:14:47;7.70;99.90
12152;DHT22;6139;51.274;7.128;2023-02-13T00:15:55;7.70;99.90
12152;DHT22;6139;51.274;7.128;2023-02-13T00:16:56;7.70;99.90
12152;DHT22;6139;51.274;7.128;2023-02-13T00:17:58;7.70;99.90
12152;DHT22;6139;51.274;7.128;2023-02-13T00:18:59;7.70;99.90
12152;DHT22;6139;51.274;7.128;2023-02-13T00:20:01;7.70;99.90
12152;DHT22;6139;51.274;7.128;2023-02-13T00:21:03;7.70;99.90
12152;DHT22;6139;51.274;7.128;2023-02-13T00:22:05;7.60;99.90
12152;DHT22;6139;51.274;7.128;2023-02-13T00:23:07;7.60;99.90
12152;DHT22;6139;51.274;7.128;2023-02-13T00:24:09;7.60;99.90
12152;DHT22;6139;51.274;7.128;2023-02-13T00:25:10;7.60;99.90
12152;DHT22;6139;51.274;7.128;2023-02-13T00:26:13;7.60;99.90
12152;DHT22;6139;51.274;7.128;2023-02-13T00:27:19;7.60;99.90
12152;DHT22;6139;51.274;7.128;2023-02-13T00:28:21;7.60;99.90
12152;DHT22;6139;51.274;7.128;2023-02-13T00:29:22;7.60;99.90
12152;DHT22;6139;51.274;7.128;2023-02-13T00:30:25;7.60;99.90
12152;DHT22;6139;51.274;7.128;2023-02-13T00:31:26;7.60;99.90
12152;DHT22;6139;51.274;7.128;2023-02-13T00:32:28;7.60;99.90
12152;DHT22;6139;51.274;7.128;2023-02-13T00:33:29;7.60;99.90
12152;DHT22;6139;51.274;7.128;2023-02-13T00:34:31;7.60;99.90
12152;DHT22;6139;51.274;7.128;2023-02-13T00:35:32;7.60;99.90
12152;DHT22;6139;51.274;7.128;2023-02-13T00:36:34;7.60;99.90
12152;DHT22;6139;51.274;7.128;2023-02-13T00:37:35;7.60;99.90
12152;DHT22;6139;51.274;7.128;2023-02-13T00:38:38;7.50;99.90
12152;DHT22;6139;51.274;7.128;2023-02-13T00:39:39;7.50;99.90
12152;DHT22;6139;51.274;7.128;2023-02-13T00:40:41;7.50;99.90
12152;DHT22;6139;51.274;7.128;2023-02-13T00:41:42;7.50;99.90
12152;DHT22;6139;51.274;7.128;2023-02-13T00:42:45;7.50;99.90
12152;DHT22;6139;51.274;7.128;2023-02-13T00:43:47;7.50;99.90
12152;DHT22;6139;51.274;7.128;2023-02-13T00:44:49;7.50;99.90
12152;DHT22;6139;51.274;7.128;2023-02-13T00:45:50;7.50;99.90
12152;DHT22;6139;51.274;7.128;2023-02-13T00:46:52;7.50;99.90
12152;DHT22;6139;51.274;7.128;2023-02-13T00:47:53;7.50;99.90
12152;DHT22;6139;51.274;7.128;2023-02-13T00:48:56;7.50;99.90
12152;DHT22;6139;51.274;7.128;2023-02-13T00:49:57;7.50;99.90
12152;DHT22;6139;51.274;7.128;2023-02-13T00:50:59;7.50;99.90
12152;DHT22;6139;51.274;7.128;2023-02-13T00:52:00;7.50;99.90
12152;DHT22;6139;51.274;7.128;2023-02-13T00:53:02;7.50;99.90
12152;DHT22;6139;51.274;7.128;2023-02-13T00:54:03;7.60;99.90
12152;DHT22;6139;51.274;7.128;2023-02-13T00:55:05;7.60;99.90
12152;DHT22;6139;51.274;7.128;2023-02-13T00:56:06;7.50;99.90
12152;DHT22;6139;51.274;7.128;2023-02-13T00:57:10;7.50;99.90
12152;DHT22;6139;51.274;7.128;2023-02-13T00:58:12;7.50;99.90
12152;DHT22;6139;51.274;7.128;2023-02-13T00:59:15;7.50;99.90
12152;DHT22;6139;51.274;7.128;2023-02-13T01:00:17;7.50;99.90
12152;DHT22;6139;51.274;7.128;2023-02-13T01:01:19;7.50;99.90
12152;DHT22;6139;51.274;7.128;2023-02-13T01:02:20;7.50;99.90
12152;DHT22;6139;51.274;7.128;2023-02-13T01:03:22;7.50;99.90
12152;DHT22;6139;51.274;7.128;2023-02-13T01:04:23;7.50;99.90
12152;DHT22;6139;51.274;7.128;2023-02-13T01:05:25;7.50;99.90
12152;DHT22;6139;51.274;7.128;2023-02-13T01:06:28;7.50;99.90
12152;DHT22;6139;51.274;7.128;2023-02-13T01:07:29;7.50;99.90
12152;DHT22;6139;51.274;7.128;2023-02-13T01:08:30;7.50;99.90
12152;DHT22;6139;51.274;7.128;2023-02-13T01:09:32;7.50;99.90
12152;DHT22;6139;51.274;7.128;2023-02-13T01:10:33;7.50;99.90
12152;DHT22;6139;51.274;7.128;2023-02-13T01:11:35;7.50;99.90
12152;DHT22;6139;51.274;7.128;2023-02-13T01:12:36;7.50;99.90
12152;DHT22;6139;51.274;7.128;2023-02-13T01:13:42;7.50;99.90
12152;DHT22;6139;51.274;7.128;2023-02-13T01:14:42;7.50;99.90
12152;DHT22;6139;51.274;7.128;2023-02-13T01:15:45;7.50;99.90
12152;DHT22;6139;51.274;7.128;2023-02-13T01:16:46;7.50;99.90
12152;DHT22;6139;51.274;7.128;2023-02-13T01:17:48;7.50;99.90
12152;DHT22;6139;51.274;7.128;2023-02-13T01:18:49;7.50;99.90
12152;DHT22;6139;51.274;7.128;2023-02-13T01:19:51;7.50;99.90
12152;DHT22;6139;51.274;7.128;2023-02-13T01:20:56;7.50;99.90
12152;DHT22;6139;51.274;7.128;2023-02-13T01:21:59;7.50;99.90
12152;DHT22;6139;51.274;7.128;2023-02-13T01:23:00;7.50;99.90
12152;DHT22;6139;51.274;7.128;2023-02-13T01:24:03;7.50;99.90
12152;DHT22;6139;51.274;7.128;2023-02-13T01:25:04;7.50;99.90
12152;DHT22;6139;51.274;7.128;2023-02-13T01:26:12;7.50;99.90
12152;DHT22;6139;51.274;7.128;2023-02-13T01:27:13;7.50;99.90
12152;DHT22;6139;51.274;7.128;2023-02-13T01:28:15;7.50;99.90
12152;DHT22;6139;51.274;7.128;2023-02-13T01:29:17;7.50;99.90
12152;DHT22;6139;51.274;7.128;2023-02-13T01:30:19;7.50;99.90
12152;DHT22;6139;51.274;7.128;2023-02-13T01:31:21;7.50;99.90
12152;DHT22;6139;51.274;7.128;2023-02-13T01:32:24;7.50;99.90
12152;DHT22;6139;51.274;7.128;2023-02-13T01:33:27;7.50;99.90
12152;DHT22;6139;51.274;7.128;2023-02-13T01:34:29;7.50;99.90
12152;DHT22;6139;51.274;7.128;2023-02-13T01:35:30;7.40;99.90
12152;DHT22;6139;51.274;7.128;2023-02-13T01:36:32;7.40;99.90
12152;DHT22;6139;51.274;7.128;2023-02-13T01:37:33;7.40;99.90
12152;DHT22;6139;51.274;7.128;2023-02-13T01:38:35;7.40;99.90
12152;DHT22;6139;51.274;7.128;2023-02-13T01:39:36;7.40;99.90
12152;DHT22;6139;51.274;7.128;2023-02-13T01:40:44;7.40;99.90
12152;DHT22;6139;51.274;7.128;2023-02-13T01:41:45;7.40;99.90
12152;DHT22;6139;51.274;7.128;2023-02-13T01:42:47;7.40;99.90
12152;DHT22;6139;51.274;7.128;2023-02-13T01:43:50;7.40;99.90
12152;DHT22;6139;51.274;7.128;2023-02-13T01:44:56;7.40;99.90
12152;DHT22;6139;51.274;7.128;2023-02-13T01:45:57;7.40;99.90
12152;DHT22;6139;51.274;7.128;2023-02-13T01:47:00;7.40;99.90
12152;DHT22;6139;51.274;7.128;2023-02-13T01:48:02;7.40;99.90
12152;DHT22;6139;51.274;7.128;2023-02-13T01:49:12;7.40;99.90
12152;DHT22;6139;51.274;7.128;2023-02-13T01:50:17;7.40;99.90
12152;DHT22;6139;51.274;7.128;2023-02-13T01:51:26;7.40;99.90
12152;DHT22;6139;51.274;7.128;2023-02-13T01:52:30;7.40;99.90
12152;DHT22;6139;51.274;7.128;2023-02-13T01:53:34;7.40;99.90
12152;DHT22;6139;51.274;7.128;2023-02-13T01:54:38;7.40;99.90
12152;DHT22;6139;51.274;7.128;2023-02-13T01:55:43;7.40;99.90
12152;DHT22;6139;51.274;7.128;2023-02-13T01:56:49;7.40;99.90
12152;DHT22;6139;51.274;7.128;2023-02-13T01:57:57;7.40;99.90
12152;DHT22;6139;51.274;7.128;2023-02-13T01:59:03;7.40;99.90
12152;DHT22;6139;51.274;7.128;2023-02-13T02:00:08;7.30;99.90
12152;DHT22;6139;51.274;7.128;2023-02-13T02:01:21;7.30;99.90
12152;DHT22;6139;51.274;7.128;2023-02-13T02:02:23;7.20;99.90
12152;DHT22;6139;51.274;7.128;2023-02-13T02:03:28;7.20;99.90
12152;DHT22;6139;51.274;7.128;2023-02-13T02:04:40;7.20;99.90
12152;DHT22;6139;51.274;7.128;2023-02-13T02:05:50;7.20;99.90
12152;DHT22;6139;51.274;7.128;2023-02-13T02:06:54;7.20;99.90
12152;DHT22;6139;51.274;7.128;2023-02-13T02:08:03;7.10;99.90
12152;DHT22;6139;51.274;7.128;2023-02-13T02:09:11;7.20;99.90
12152;DHT22;6139;51.274;7.128;2023-02-13T02:10:17;7.20;99.90
12152;DHT22;6139;51.274;7.128;2023-02-13T02:11:23;7.20;99.90
12152;DHT22;6139;51.274;7.128;2023-02-13T02:12:30;7.20;99.90
12152;DHT22;6139;51.274;7.128;2023-02-13T02:13:31;7.20;99.90
12152;DHT22;6139;51.274;7.128;2023-02-13T02:14:40;7.20;99.90
12152;DHT22;6139;51.274;7.128;2023-02-13T02:15:46;7.20;99.90
12152;DHT22;6139;51.274;7.128;2023-02-13T02:16:49;7.20;99.90
12152;DHT22;6139;51.274;7.128;2023-02-13T02:17:50;7.20;99.90
12152;DHT22;6139;51.274;7.128;2023-02-13T02:18:52;7.10;99.90
12152;DHT22;6139;51.274;7.128;2023-02-13T02:20:12;7.10;99.90
12152;DHT22;6139;51.274;7.128;2023-02-13T02:23:11;7.10;99.90
12152;DHT22;6139;51.274;7.128;2023-02-13T02:26:35;7.00;99.90
12152;DHT22;6139;51.274;7.128;2023-02-13T02:28:18;7.00;99.90
12152;DHT22;6139;51.274;7.128;2023-02-13T02:29:51;7.00;99.90
12152;DHT22;6139;51.274;7.128;2023-02-13T02:32:47;6.90;99.90
12152;DHT22;6139;51.274;7.128;2023-02-13T02:34:04;6.90;99.90
12152;DHT22;6139;51.274;7.128;2023-02-13T02:35:21;6.90;99.90
12152;DHT22;6139;51.274;7.128;2023-02-13T02:36:36;6.90;99.90
12152;DHT22;6139;51.274;7.128;2023-02-13T02:37:55;6.90;99.90
12152;DHT22;6139;51.274;7.128;2023-02-13T02:39:05;6.90;99.90
12152;DHT22;6139;51.274;7.128;2023-02-13T02:40:19;6.90;99.90
12152;DHT22;6139;51.274;7.128;2023-02-13T02:41:33;6.90;99.90
12152;DHT22;6139;51.274;7.128;2023-02-13T02:42:54;6.80;99.90
12152;DHT22;6139;51.274;7.128;2023-02-13T02:44:04;6.80;99.90
12152;DHT22;6139;51.274;7.128;2023-02-13T02:45:13;6.80;99.90
12152;DHT22;6139;51.274;7.128;2023-02-13T02:46:23;6.80;99.90
12152;DHT22;6139;51.274;7.128;2023-02-13T02:47:30;6.80;99.90
12152;DHT22;6139;51.274;7.128;2023-02-13T02:48:56;6.80;99.90
12152;DHT22;6139;51.274;7.128;2023-02-13T02:50:32;6.80;99.90
12152;DHT22;6139;51.274;7.128;2023-02-13T02:51:40;6.80;99.90
12152;DHT22;6139;51.274;7.128;2023-02-13T02:52:56;6.80;99.90
12152;DHT22;6139;51.274;7.128;2023-02-13T02:54:04;6.80;99.90
12152;DHT22;6139;51.274;7.128;2023-02-13T02:55:36;6.80;99.90
12152;DHT22;6139;51.274;7.128;2023-02-13T02:56:41;6.70;99.90
12152;DHT22;6139;51.274;7.128;2023-02-13T02:57:48;6.70;99.90
12152;DHT22;6139;51.274;7.128;2023-02-13T02:59:11;6.70;99.90
12152;DHT22;6139;51.274;7.128;2023-02-13T03:00:37;6.70;99.90
12152;DHT22;6139;51.274;7.128;2023-02-13T03:01:58;6.70;99.90
12152;DHT22;6139;51.274;7.128;2023-02-13T03:03:24;6.70;99.90
12152;DHT22;6139;51.274;7.128;2023-02-13T03:04:48;6.70;99.90
12152;DHT22;6139;51.274;7.128;2023-02-13T03:06:14;6.70;99.90
12152;DHT22;6139;51.274;7.128;2023-02-13T03:07:19;6.70;99.90
12152;DHT22;6139;51.274;7.128;2023-02-13T03:08:20;6.70;99.90
12152;DHT22;6139;51.274;7.128;2023-02-13T03:09:45;6.70;99.90
12152;DHT22;6139;51.274;7.128;2023-02-13T03:11:05;6.70;99.90
12152;DHT22;6139;51.274;7.128;2023-02-13T03:12:29;6.70;99.90
12152;DHT22;6139;51.274;7.128;2023-02-13T03:13:52;6.70;99.90
12152;DHT22;6139;51.274;7.128;2023-02-13T03:14:55;6.70;99.90
12152;DHT22;6139;51.274;7.128;2023-02-13T03:15:58;6.70;99.90
12152;DHT22;6139;51.274;7.128;2023-02-13T03:17:16;6.70;99.90
12152;DHT22;6139;51.274;7.128;2023-02-13T03:18:38;6.80;99.90
12152;DHT22;6139;51.274;7.128;2023-02-13T03:20:11;6.80;99.90
12152;DHT22;6139;51.274;7.128;2023-02-13T03:21:42;6.80;99.90
12152;DHT22;6139;51.274;7.128;2023-02-13T03:23:11;6.70;99.90
12152;DHT22;6139;51.274;7.128;2023-02-13T03:24:23;6.80;99.90
12152;DHT22;6139;51.274;7.128;2023-02-13T03:25:30;6.80;99.90
12152;DHT22;6139;51.274;7.128;2023-02-13T03:26:47;6.80;99.90
12152;DHT22;6139;51.274;7.128;2023-02-13T03:27:56;6.70;99.90
12152;DHT22;6139;51.274;7.128;2023-02-13T03:29:24;6.70;99.90
12152;DHT22;6139;51.274;7.128;2023-02-13T03:30:56;6.70;99.90
12152;DHT22;6139;51.274;7.128;2023-02-13T03:32:05;6.70;99.90
12152;DHT22;6139;51.274;7.128;2023-02-13T03:33:20;6.80;99.90
12152;DHT22;6139;51.274;7.128;2023-02-13T03:34:25;6.80;99.90
12152;DHT22;6139;51.274;7.128;2023-02-13T03:35:55;6.80;99.90
12152;DHT22;6139;51.274;7.128;2023-02-13T03:37:26;6.80;99.90
12152;DHT22;6139;51.274;7.128;2023-02-13T03:38:51;6.80;99.90
12152;DHT22;6139;51.274;7.128;2023-02-13T03:40:02;6.80;99.90
12152;DHT22;6139;51.274;7.128;2023-02-13T03:41:10;6.80;99.90
12152;DHT22;6139;51.274;7.128;2023-02-13T03:42:26;6.80;99.90
12152;DHT22;6139;51.274;7.128;2023-02-13T03:43:32;6.80;99.90
12152;DHT22;6139;51.274;7.128;2023-02-13T03:44:39;6.80;99.90
12152;DHT22;6139;51.274;7.128;2023-02-13T03:45:44;6.80;99.90
12152;DHT22;6139;51.274;7.128;2023-02-13T03:46:57;6.80;99.90
12152;DHT22;6139;51.274;7.128;2023-02-13T03:48:00;6.80;99.90
12152;DHT22;6139;51.274;7.128;2023-02-13T03:49:20;6.80;99.90
12152;DHT22;6139;51.274;7.128;2023-02-13T03:50:41;6.70;99.90
12152;DHT22;6139;51.274;7.128;2023-02-13T03:51:49;6.80;99.90
12152;DHT22;6139;51.274;7.128;2023-02-13T03:52:57;6.80;99.90
12152;DHT22;6139;51.274;7.128;2023-02-13T03:54:02;6.80;99.90
12152;DHT22;6139;51.274;7.128;2023-02-13T03:55:08;6.90;99.90
12152;DHT22;6139;51.274;7.128;2023-02-13T03:56:31;6.80;99.90
12152;DHT22;6139;51.274;7.128;2023-02-13T03:57:55;6.80;99.90
12152;DHT22;6139;51.274;7.128;2023-02-13T03:59:19;6.80;99.90
12152;DHT22;6139;51.274;7.128;2023-02-13T04:00:23;6.80;99.90
12152;DHT22;6139;51.274;7.128;2023-02-13T04:01:27;6.80;99.90
12152;DHT22;6139;51.274;7.128;2023-02-13T04:02:33;6.80;99.90
12152;DHT22;6139;51.274;7.128;2023-02-13T04:03:41;6.80;99.90
12152;DHT22;6139;51.274;7.128;2023-02-13T04:04:50;6.90;99.90
12152;DHT22;6139;51.274;7.128;2023-02-13T04:06:00;6.90;99.90
12152;DHT22;6139;51.274;7.128;2023-02-13T04:07:07;6.90;99.90
12152;DHT22;6139;51.274;7.128;2023-02-13T04:08:10;6.90;99.90
12152;DHT22;6139;51.274;7.128;2023-02-13T04:09:12;6.90;99.90
12152;DHT22;6139;51.274;7.128;2023-02-13T04:10:15;6.90;99.90
12152;DHT22;6139;51.274;7.128;2023-02-13T04:11:23;6.90;99.90
12152;DHT22;6139;51.274;7.128;2023-02-13T04:12:29;6.80;99.90
12152;DHT22;6139;51.274;7.128;2023-02-13T04:13:34;6.80;99.90
12152;DHT22;6139;51.274;7.128;2023-02-13T04:14:39;6.80;99.90
12152;DHT22;6139;51.274;7.128;2023-02-13T04:15:47;6.80;99.90
12152;DHT22;6139;51.274;7.128;2023-02-13T04:16:52;6.80;99.90
12152;DHT22;6139;51.274;7.128;2023-02-13T04:17:58;6.80;99.90
12152;DHT22;6139;51.274;7.128;2023-02-13T04:19:04;6.80;99.90
12152;DHT22;6139;51.274;7.128;2023-02-13T04:20:07;6.80;99.90
12152;DHT22;6139;51.274;7.128;2023-02-13T04:21:08;6.80;99.90
12152;DHT22;6139;51.274;7.128;2023-02-13T04:22:12;6.80;99.90
12152;DHT22;6139;51.274;7.128;2023-02-13T04:23:13;6.90;99.90
12152;DHT22;6139;51.274;7.128;2023-02-13T04:24:15;6.80;99.90
12152;DHT22;6139;51.274;7.128;2023-02-13T04:25:17;6.80;99.90
12152;DHT22;6139;51.274;7.128;2023-02-13T04:26:22;6.80;99.90
12152;DHT22;6139;51.274;7.128;2023-02-13T04:27:24;6.80;99.90
12152;DHT22;6139;51.274;7.128;2023-02-13T04:28:27;6.80;99.90
12152;DHT22;6139;51.274;7.128;2023-02-13T04:29:28;6.80;99.90
12152;DHT22;6139;51.274;7.128;2023-02-13T04:30:30;6.80;99.90
12152;DHT22;6139;51.274;7.128;2023-02-13T04:31:31;6.80;99.90
12152;DHT22;6139;51.274;7.128;2023-02-13T04:32:33;6.90;99.90
12152;DHT22;6139;51.274;7.128;2023-02-13T04:33:34;6.90;99.90
12152;DHT22;6139;51.274;7.128;2023-02-13T04:34:36;6.90;99.90
12152;DHT22;6139;51.274;7.128;2023-02-13T04:35:37;6.80;99.90
12152;DHT22;6139;51.274;7.128;2023-02-13T04:36:39;6.80;99.90
12152;DHT22;6139;51.274;7.128;2023-02-13T04:37:41;6.80;99.90
12152;DHT22;6139;51.274;7.128;2023-02-13T04:38:43;6.70;99.90
12152;DHT22;6139;51.274;7.128;2023-02-13T04:39:45;6.80;99.90
12152;DHT22;6139;51.274;7.128;2023-02-13T04:40:47;6.70;99.90
12152;DHT22;6139;51.274;7.128;2023-02-13T04:41:48;6.80;99.90
12152;DHT22;6139;51.274;7.128;2023-02-13T04:42:50;6.80;99.90
12152;DHT22;6139;51.274;7.128;2023-02-13T04:43:50;6.80;99.90
12152;DHT22;6139;51.274;7.128;2023-02-13T04:44:52;6.70;99.90
12152;DHT22;6139;51.274;7.128;2023-02-13T04:45:53;6.80;99.90
12152;DHT22;6139;51.274;7.128;2023-02-13T04:46:55;6.70;99.90
12152;DHT22;6139;51.274;7.128;2023-02-13T04:47:56;6.70;99.90
12152;DHT22;6139;51.274;7.128;2023-02-13T04:48:58;6.80;99.90
12152;DHT22;6139;51.274;7.128;2023-02-13T04:49:59;6.80;99.90
12152;DHT22;6139;51.274;7.128;2023-02-13T04:51:01;6.80;99.90
12152;DHT22;6139;51.274;7.128;2023-02-13T04:52:03;6.80;99.90
12152;DHT22;6139;51.274;7.128;2023-02-13T04:53:06;6.80;99.90
12152;DHT22;6139;51.274;7.128;2023-02-13T04:54:07;6.80;99.90
12152;DHT22;6139;51.274;7.128;2023-02-13T04:55:09;6.80;99.90
12152;DHT22;6139;51.274;7.128;2023-02-13T04:56:10;6.80;99.90
12152;DHT22;6139;51.274;7.128;2023-02-13T04:57:12;6.80;99.90
12152;DHT22;6139;51.274;7.128;2023-02-13T04:58:13;6.80;99.90
12152;DHT22;6139;51.274;7.128;2023-02-13T04:59:15;6.80;99.90
12152;DHT22;6139;51.274;7.128;2023-02-13T05:00:17;6.80;99.90
12152;DHT22;6139;51.274;7.128;2023-02-13T05:01:19;6.80;99.90
12152;DHT22;6139;51.274;7.128;2023-02-13T05:02:20;6.80;99.90
12152;DHT22;6139;51.274;7.128;2023-02-13T05:03:22;6.80;99.90
12152;DHT22;6139;51.274;7.128;2023-02-13T05:04:23;6.80;99.90
12152;DHT22;6139;51.274;7.128;2023-02-13T05:05:25;6.80;99.90
12152;DHT22;6139;51.274;7.128;2023-02-13T05:06:26;6.80;99.90
12152;DHT22;6139;51.274;7.128;2023-02-13T05:07:27;6.80;99.90
12152;DHT22;6139;51.274;7.128;2023-02-13T05:08:30;6.80;99.90
12152;DHT22;6139;51.274;7.128;2023-02-13T05:09:32;6.80;99.90
12152;DHT22;6139;51.274;7.128;2023-02-13T05:10:33;6.70;99.90
12152;DHT22;6139;51.274;7.128;2023-02-13T05:11:35;6.70;99.90
12152;DHT22;6139;51.274;7.128;2023-02-13T05:12:36;6.70;99.90
12152;DHT22;6139;51.274;7.128;2023-02-13T05:13:38;6.70;99.90
12152;DHT22;6139;51.274;7.128;2023-02-13T05:14:39;6.70;99.90
12152;DHT22;6139;51.274;7.128;2023-02-13T05:15:41;6.70;99.90
12152;DHT22;6139;51.274;7.128;2023-02-13T05:16:42;6.70;99.90
12152;DHT22;6139;51.274;7.128;2023-02-13T05:17:44;6.70;99.90
12152;DHT22;6139;51.274;7.128;2023-02-13T05:18:45;6.70;99.90
12152;DHT22;6139;51.274;7.128;2023-02-13T05:19:46;6.70;99.90
12152;DHT22;6139;51.274;7.128;2023-02-13T05:20:47;6.70;99.90
12152;DHT22;6139;51.274;7.128;2023-02-13T05:22:10;6.70;99.90
12152;DHT22;6139;51.274;7.128;2023-02-13T05:23:31;6.70;99.90
12152;DHT22;6139;51.274;7.128;2023-02-13T05:24:32;6.70;99.90
12152;DHT22;6139;51.274;7.128;2023-02-13T05:25:34;6.70;99.90
12152;DHT22;6139;51.274;7.128;2023-02-13T05:26:36;6.70;99.90
12152;DHT22;6139;51.274;7.128;2023-02-13T05:27:37;6.70;99.90
12152;DHT22;6139;51.274;7.128;2023-02-13T05:28:39;6.70;99.90
12152;DHT22;6139;51.274;7.128;2023-02-13T05:29:59;6.70;99.90
12152;DHT22;6139;51.274;7.128;2023-02-13T05:31:01;6.70;99.90
12152;DHT22;6139;51.274;7.128;2023-02-13T05:32:02;6.70;99.90
12152;DHT22;6139;51.274;7.128;2023-02-13T05:33:04;6.70;99.90
12152;DHT22;6139;51.274;7.128;2023-02-13T05:34:05;6.70;99.90
12152;DHT22;6139;51.274;7.128;2023-02-13T05:35:07;6.70;99.90
12152;DHT22;6139;51.274;7.128;2023-02-13T05:36:08;6.70;99.90
12152;DHT22;6139;51.274;7.128;2023-02-13T05:37:10;6.70;99.90
12152;DHT22;6139;51.274;7.128;2023-02-13T05:38:11;6.70;99.90
12152;DHT22;6139;51.274;7.128;2023-02-13T05:39:14;6.70;99.90
12152;DHT22;6139;51.274;7.128;2023-02-13T05:40:16;6.70;99.90
12152;DHT22;6139;51.274;7.128;2023-02-13T05:41:17;6.70;99.90
12152;DHT22;6139;51.274;7.128;2023-02-13T05:42:19;6.70;99.90
12152;DHT22;6139;51.274;7.128;2023-02-13T05:43:20;6.70;99.90
12152;DHT22;6139;51.274;7.128;2023-02-13T05:44:22;6.70;99.90
12152;DHT22;6139;51.274;7.128;2023-02-13T05:45:23;6.70;99.90
12152;DHT22;6139;51.274;7.128;2023-02-13T05:46:25;6.60;99.90
12152;DHT22;6139;51.274;7.128;2023-02-13T05:47:26;6.70;99.90
12152;DHT22;6139;51.274;7.128;2023-02-13T05:48:28;6.60;99.90
12152;DHT22;6139;51.274;7.128;2023-02-13T05:49:29;6.60;99.90
12152;DHT22;6139;51.274;7.128;2023-02-13T05:50:31;6.60;99.90
12152;DHT22;6139;51.274;7.128;2023-02-13T05:51:32;6.60;99.90
12152;DHT22;6139;51.274;7.128;2023-02-13T05:52:34;6.60;99.90
12152;DHT22;6139;51.274;7.128;2023-02-13T05:53:35;6.60;99.90
12152;DHT22;6139;51.274;7.128;2023-02-13T05:54:39;6.60;99.90
12152;DHT22;6139;51.274;7.128;2023-02-13T05:55:40;6.60;99.90
12152;DHT22;6139;51.274;7.128;2023-02-13T05:56:41;6.50;99.90
12152;DHT22;6139;51.274;7.128;2023-02-13T05:57:43;6.60;99.90
12152;DHT22;6139;51.274;7.128;2023-02-13T05:58:44;6.50;99.90
12152;DHT22;6139;51.274;7.128;2023-02-13T05:59:46;6.50;99.90
12152;DHT22;6139;51.274;7.128;2023-02-13T06:00:47;6.50;99.90
12152;DHT22;6139;51.274;7.128;2023-02-13T06:01:49;6.50;99.90
12152;DHT22;6139;51.274;7.128;2023-02-13T06:02:51;6.50;99.90
12152;DHT22;6139;51.274;7.128;2023-02-13T06:03:52;6.50;99.90
12152;DHT22;6139;51.274;7.128;2023-02-13T06:04:54;6.50;99.90
12152;DHT22;6139;51.274;7.128;2023-02-13T06:05:55;6.50;99.90
12152;DHT22;6139;51.274;7.128;2023-02-13T06:06:57;6.50;99.90
12152;DHT22;6139;51.274;7.128;2023-02-13T06:07:58;6.50;99.90
12152;DHT22;6139;51.274;7.128;2023-02-13T06:09:00;6.50;99.90
12152;DHT22;6139;51.274;7.128;2023-02-13T06:10:03;6.50;99.90
12152;DHT22;6139;51.274;7.128;2023-02-13T06:11:05;6.50;99.90
12152;DHT22;6139;51.274;7.128;2023-02-13T06:12:06;6.50;99.90
12152;DHT22;6139;51.274;7.128;2023-02-13T06:13:08;6.50;99.90
12152;DHT22;6139;51.274;7.128;2023-02-13T06:14:10;6.50;99.90
12152;DHT22;6139;51.274;7.128;2023-02-13T06:15:13;6.40;99.90
12152;DHT22;6139;51.274;7.128;2023-02-13T06:16:14;6.40;99.90
12152;DHT22;6139;51.274;7.128;2023-02-13T06:17:16;6.40;99.90
12152;DHT22;6139;51.274;7.128;2023-02-13T06:18:18;6.40;99.90
12152;DHT22;6139;51.274;7.128;2023-02-13T06:19:19;6.40;99.90
12152;DHT22;6139;51.274;7.128;2023-02-13T06:20:21;6.40;99.90
12152;DHT22;6139;51.274;7.128;2023-02-13T06:21:22;6.40;99.90
12152;DHT22;6139;51.274;7.128;2023-02-13T06:22:24;6.40;99.90
12152;DHT22;6139;51.274;7.128;2023-02-13T06:23:25;6.40;99.90
12152;DHT22;6139;51.274;7.128;2023-02-13T06:24:27;6.30;99.90
12152;DHT22;6139;51.274;7.128;2023-02-13T06:25:31;6.30;99.90
12152;DHT22;6139;51.274;7.128;2023-02-13T06:26:34;6.30;99.90
12152;DHT22;6139;51.274;7.128;2023-02-13T06:27:36;6.30;99.90
12152;DHT22;6139;51.274;7.128;2023-02-13T06:28:36;6.30;99.90
12152;DHT22;6139;51.274;7.128;2023-02-13T06:29:38;6.30;99.90
12152;DHT22;6139;51.274;7.128;2023-02-13T06:30:39;6.30;99.90
12152;DHT22;6139;51.274;7.128;2023-02-13T06:31:41;6.30;99.90
12152;DHT22;6139;51.274;7.128;2023-02-13T06:32:46;6.30;99.90
12152;DHT22;6139;51.274;7.128;2023-02-13T06:33:47;6.30;99.90
12152;DHT22;6139;51.274;7.128;2023-02-13T06:34:49;6.30;99.90
12152;DHT22;6139;51.274;7.128;2023-02-13T06:35:50;6.30;99.90
12152;DHT22;6139;51.274;7.128;2023-02-13T06:36:52;6.30;99.90
12152;DHT22;6139;51.274;7.128;2023-02-13T06:37:53;6.30;99.90
12152;DHT22;6139;51.274;7.128;2023-02-13T06:38:55;6.30;99.90
12152;DHT22;6139;51.274;7.128;2023-02-13T06:39:57;6.30;99.90
12152;DHT22;6139;51.274;7.128;2023-02-13T06:41:00;6.30;99.90
12152;DHT22;6139;51.274;7.128;2023-02-13T06:42:02;6.30;99.90
12152;DHT22;6139;51.274;7.128;2023-02-13T06:43:03;6.30;99.90
12152;DHT22;6139;51.274;7.128;2023-02-13T06:44:05;6.30;99.90
12152;DHT22;6139;51.274;7.128;2023-02-13T06:45:08;6.20;99.90
12152;DHT22;6139;51.274;7.128;2023-02-13T06:46:10;6.20;99.90
12152;DHT22;6139;51.274;7.128;2023-02-13T06:47:11;6.20;99.90
12152;DHT22;6139;51.274;7.128;2023-02-13T06:48:13;6.30;99.90
12152;DHT22;6139;51.274;7.128;2023-02-13T06:49:14;6.20;99.90
12152;DHT22;6139;51.274;7.128;2023-02-13T06:50:16;6.20;99.90
12152;DHT22;6139;51.274;7.128;2023-02-13T06:51:17;6.20;99.90
12152;DHT22;6139;51.274;7.128;2023-02-13T06:52:19;6.20;99.90
12152;DHT22;6139;51.274;7.128;2023-02-13T06:53:20;6.20;99.90
12152;DHT22;6139;51.274;7.128;2023-02-13T06:54:24;6.20;99.90
12152;DHT22;6139;51.274;7.128;2023-02-13T06:55:25;6.20;99.90
12152;DHT22;6139;51.274;7.128;2023-02-13T06:56:29;6.20;99.90
12152;DHT22;6139;51.274;7.128;2023-02-13T06:57:30;6.20;99.90
12152;DHT22;6139;51.274;7.128;2023-02-13T06:58:33;6.20;99.90
12152;DHT22;6139;51.274;7.128;2023-02-13T06:59:35;6.20;99.90
12152;DHT22;6139;51.274;7.128;2023-02-13T07:00:36;6.20;99.90
12152;DHT22;6139;51.274;7.128;2023-02-13T07:01:38;6.20;99.90
12152;DHT22;6139;51.274;7.128;2023-02-13T07:02:40;6.20;99.90
12152;DHT22;6139;51.274;7.128;2023-02-13T07:03:42;6.20;99.90
12152;DHT22;6139;51.274;7.128;2023-02-13T07:04:43;6.20;99.90
12152;DHT22;6139;51.274;7.128;2023-02-13T07:05:45;6.20;99.90
12152;DHT22;6139;51.274;7.128;2023-02-13T07:06:53;6.10;99.90
12152;DHT22;6139;51.274;7.128;2023-02-13T07:07:55;6.20;99.90
12152;DHT22;6139;51.274;7.128;2023-02-13T07:08:56;6.10;99.90
12152;DHT22;6139;51.274;7.128;2023-02-13T07:09:59;6.20;99.90
12152;DHT22;6139;51.274;7.128;2023-02-13T07:11:00;6.20;99.90
12152;DHT22;6139;51.274;7.128;2023-02-13T07:12:03;6.10;99.90